Plymouth, NY (13832)

2:57 AM EDT on September 30, 2016 (GMT -0400)
APRSWXNET | | Change Station

Elev 1395 ft 42.61 °N, 75.56 °W | Updated 24 minutes ago

Overcast
Overcast
53 °F
Feels Like 53 °F
N
0
Wind Variable Wind from SE
Gusts 4.0 mph

Today
High -- | Low -- °F
--% Chance of Precip.
Yesterday
High -- | Low -- °F
Precip. -- in
Pressure 30.35 in
Visibility 10.0 miles
Clouds Overcast 11000 ft
Dew Point 44 °F
Humidity 72%
Rainfall in
Snow Depth Not available.
6:59 AM 6:44 PM
Waning Crescent, 0% visible
METAR KN03 300635Z AUTO 08004KT 10SM OVC110 13/07 A3035 RMK AO2
Pressure 30.35 in
Visibility 10.0 miles
Clouds Overcast 11000 ft
Dew Point 44 °F
Humidity 72%
Rainfall in
Snow Depth Not available.
6:59 AM 6:44 PM
Waning Crescent, 0% visible
METAR KN03 300635Z AUTO 08004KT 10SM OVC110 13/07 A3035 RMK AO2

10-Day Weather Forecast

Almanac

Astronomy

Sep. 30, 2016 Rise Set
Actual Time
Civil Twilight
Nautical Twilight
Astronomical Twilight
Moon
Length of Visible Light
Length of Day
Tomorrow will be .
, % of the Moon is Illuminated

Today's Extremes

State Highs State Lows

Community

WunderPhotos

Upload Photos

1,942,668 photos uploaded!

WunderBlog® & News

Nearby

Air Quality

  Air Quality AQ Index Pollutant
Not available.

Snow Depth

Station Depth Elevation

Earthquake Activity

City Distance Mag. Time & Date
Minimum magnitude displayed is 2.5.

Coastal Water Temperatures

Place Temperature

Stations

Nearby Weather Stations

Station Location Temp. Windchill Dew Point Humidity Wind Precip. Elev Updated Type
                   

Watches & Warnings

There are currently no watches in effect.